createdAt,value
2023-04-18T00:00:37.864Z,8.70
2023-04-18T00:03:09.586Z,8.80
2023-04-18T00:05:37.994Z,8.70
2023-04-18T00:08:06.118Z,8.70
2023-04-18T00:10:34.086Z,8.70
2023-04-18T00:13:02.064Z,8.70
2023-04-18T00:15:30.423Z,8.80
2023-04-18T00:17:58.614Z,8.80
2023-04-18T00:20:27.919Z,8.70
2023-04-18T00:22:56.088Z,8.70
2023-04-18T00:25:24.048Z,8.80
2023-04-18T00:27:52.057Z,8.70
2023-04-18T00:30:20.032Z,8.80
2023-04-18T00:32:48.006Z,8.80
2023-04-18T00:35:16.027Z,8.70
2023-04-18T00:37:45.376Z,8.70
2023-04-18T00:40:13.589Z,8.70
2023-04-18T00:42:41.581Z,8.60
2023-04-18T00:45:10.520Z,8.70
2023-04-18T00:47:38.473Z,8.70
2023-04-18T00:50:07.799Z,8.70
2023-04-18T00:52:36.003Z,8.60
2023-04-18T00:55:07.267Z,8.50
2023-04-18T00:57:36.015Z,8.50
2023-04-18T01:00:08.689Z,8.50
2023-04-18T01:02:37.015Z,8.60
2023-04-18T01:05:06.160Z,8.60
2023-04-18T01:07:37.250Z,8.60
2023-04-18T01:10:07.937Z,8.50
2023-04-18T01:12:49.671Z,8.60
2023-04-18T01:15:18.382Z,8.60
2023-04-18T01:17:47.282Z,8.60
2023-04-18T01:20:16.717Z,8.60
2023-04-18T01:22:44.677Z,8.60
2023-04-18T01:25:14.667Z,8.70
2023-04-18T01:27:43.357Z,8.60
2023-04-18T01:30:12.545Z,8.60
2023-04-18T01:32:40.703Z,8.60
2023-04-18T01:35:09.749Z,8.60
2023-04-18T01:37:37.808Z,8.60
2023-04-18T01:40:06.752Z,8.70
2023-04-18T01:42:36.190Z,8.60
2023-04-18T01:45:04.974Z,8.60
2023-04-18T01:47:32.947Z,8.60
2023-04-18T01:50:00.982Z,8.50
2023-04-18T01:52:32.210Z,8.60
2023-04-18T01:55:02.056Z,8.60
2023-04-18T01:57:30.418Z,8.60
2023-04-18T01:59:59.760Z,8.50
2023-04-18T02:02:27.895Z,8.50
2023-04-18T02:04:55.945Z,8.40
2023-04-18T02:07:23.946Z,8.40
2023-04-18T02:09:52.321Z,8.40
2023-04-18T02:12:20.380Z,8.40
2023-04-18T02:14:53.961Z,8.40
2023-04-18T02:17:24.084Z,8.50
2023-04-18T02:19:52.538Z,8.50
2023-04-18T02:22:21.551Z,8.60
2023-04-18T02:24:49.465Z,8.50
2023-04-18T02:27:17.439Z,8.50
2023-04-18T02:29:45.737Z,8.40
2023-04-18T02:32:13.744Z,8.40
2023-04-18T02:34:46.354Z,8.40
2023-04-18T02:37:14.297Z,8.60
2023-04-18T02:39:42.243Z,8.50
2023-04-18T02:42:10.315Z,8.60
2023-04-18T02:44:38.295Z,8.60
2023-04-18T02:47:06.351Z,8.60
2023-04-18T02:49:39.611Z,8.60
2023-04-18T02:52:09.009Z,8.60
2023-04-18T02:54:37.550Z,8.70
2023-04-18T02:57:10.378Z,8.60
2023-04-18T02:59:53.914Z,8.60
2023-04-18T03:02:40.598Z,8.50
2023-04-18T03:05:24.344Z,8.50
2023-04-18T03:07:56.678Z,8.50
2023-04-18T03:10:24.785Z,8.60
2023-04-18T03:12:52.980Z,8.60
2023-04-18T03:15:22.040Z,8.60
2023-04-18T03:17:50.964Z,8.70
2023-04-18T03:20:22.201Z,8.60
2023-04-18T03:22:50.218Z,8.60
2023-04-18T03:25:23.810Z,8.60
2023-04-18T03:27:54.057Z,8.60
2023-04-18T03:30:24.002Z,8.50
2023-04-18T03:32:57.102Z,8.50
2023-04-18T03:35:25.126Z,8.50
2023-04-18T03:37:53.161Z,8.60
2023-04-18T03:40:32.290Z,8.50
2023-04-18T03:43:09.340Z,8.60
2023-04-18T03:45:37.545Z,8.60
2023-04-18T03:48:07.149Z,8.60
2023-04-18T03:50:39.221Z,8.60
2023-04-18T03:53:11.104Z,8.60
2023-04-18T03:55:43.732Z,8.60
2023-04-18T03:58:14.910Z,8.50
2023-04-18T04:00:42.944Z,8.60
2023-04-18T04:03:12.428Z,8.60
2023-04-18T04:05:41.334Z,8.50
2023-04-18T04:08:09.313Z,8.60
2023-04-18T04:10:37.441Z,8.60
2023-04-18T04:13:07.049Z,8.60
2023-04-18T04:15:38.634Z,8.60
2023-04-18T04:18:09.057Z,8.60
2023-04-18T04:20:40.305Z,8.70
2023-04-18T04:23:13.770Z,8.70
2023-04-18T04:25:46.357Z,8.70
2023-04-18T04:28:36.725Z,8.70
2023-04-18T04:31:09.320Z,8.80
2023-04-18T04:33:38.790Z,8.60
2023-04-18T04:36:15.209Z,8.60
2023-04-18T04:38:45.674Z,8.70
2023-04-18T04:41:13.963Z,8.80
2023-04-18T04:43:43.371Z,8.80
2023-04-18T04:46:14.829Z,8.80
2023-04-18T04:48:44.184Z,8.80
2023-04-18T04:51:12.291Z,8.80
2023-04-18T04:53:40.349Z,8.80
2023-04-18T04:56:09.372Z,8.80
2023-04-18T04:58:37.988Z,8.80
2023-04-18T05:01:15.137Z,8.80
2023-04-18T05:03:43.529Z,9.00
2023-04-18T05:06:11.875Z,9.00
2023-04-18T05:08:39.933Z,8.90
2023-04-18T05:11:07.922Z,9.00
2023-04-18T05:13:35.966Z,9.00
2023-04-18T05:16:04.198Z,9.10
2023-04-18T05:18:35.041Z,9.20
2023-04-18T05:21:03.148Z,9.10
2023-04-18T05:23:31.258Z,9.10
2023-04-18T05:25:59.324Z,9.10
2023-04-18T05:28:27.688Z,9.20
2023-04-18T05:31:01.087Z,9.10
2023-04-18T05:33:29.361Z,9.20
2023-04-18T05:35:59.536Z,9.30
2023-04-18T05:38:32.659Z,9.30
2023-04-18T05:41:02.981Z,9.40
2023-04-18T05:43:31.085Z,9.40
2023-04-18T05:45:59.060Z,9.50
2023-04-18T05:48:27.096Z,9.60
2023-04-18T05:50:55.034Z,9.70
2023-04-18T05:53:24.589Z,9.80
2023-04-18T05:55:53.992Z,10.00
2023-04-18T05:58:22.177Z,10.00
2023-04-18T06:00:50.677Z,10.20
2023-04-18T06:03:18.989Z,10.30
2023-04-18T06:05:47.220Z,10.40
2023-04-18T06:08:15.448Z,10.40
2023-04-18T06:10:44.812Z,10.40
2023-04-18T06:13:12.984Z,10.30
2023-04-18T06:15:41.151Z,10.40
2023-04-18T06:18:09.106Z,10.60
2023-04-18T06:20:37.266Z,10.50
2023-04-18T06:23:05.243Z,10.60
2023-04-18T06:25:33.336Z,10.60
2023-04-18T06:28:11.644Z,10.80
2023-04-18T06:30:41.760Z,10.70
2023-04-18T06:33:11.093Z,10.70
2023-04-18T06:35:39.638Z,10.80
2023-04-18T06:38:07.800Z,10.90
2023-04-18T06:40:36.211Z,10.80
2023-04-18T06:43:09.870Z,10.80
2023-04-18T06:45:41.608Z,10.90
2023-04-18T06:48:10.703Z,11.00
2023-04-18T06:50:38.992Z,10.90
2023-04-18T06:53:07.201Z,11.10
2023-04-18T06:55:35.375Z,11.00
2023-04-18T06:58:05.510Z,11.00
2023-04-18T07:00:33.643Z,11.00
2023-04-18T07:03:03.098Z,11.10
2023-04-18T07:05:31.344Z,11.20
2023-04-18T07:08:00.070Z,11.10
2023-04-18T07:10:32.728Z,11.00
2023-04-18T07:13:05.681Z,11.10
2023-04-18T07:15:35.675Z,11.20
2023-04-18T07:18:03.678Z,11.30
2023-04-18T07:20:31.758Z,11.30
2023-04-18T07:22:59.847Z,11.60
2023-04-18T07:25:27.909Z,11.50
2023-04-18T07:27:55.970Z,11.50
2023-04-18T07:30:26.339Z,11.60
2023-04-18T07:32:54.482Z,11.60
2023-04-18T07:35:22.795Z,11.60
2023-04-18T07:37:53.890Z,11.80
2023-04-18T07:40:22.319Z,11.80
2023-04-18T07:42:50.290Z,11.90
2023-04-18T07:45:19.120Z,11.90
2023-04-18T07:47:48.616Z,12.10
2023-04-18T07:50:16.618Z,12.10
2023-04-18T07:52:47.638Z,12.30
2023-04-18T07:55:15.760Z,12.40
2023-04-18T07:57:45.881Z,12.40
2023-04-18T08:00:15.865Z,12.70
2023-04-18T08:02:43.988Z,12.80
2023-04-18T08:05:13.497Z,12.90
2023-04-18T08:07:41.813Z,13.10
2023-04-18T08:10:10.461Z,12.90
2023-04-18T08:12:38.896Z,13.00
2023-04-18T08:15:08.163Z,12.90
2023-04-18T08:17:36.251Z,13.00
2023-04-18T08:20:07.256Z,12.90
2023-04-18T08:22:44.031Z,13.20
2023-04-18T08:25:18.910Z,13.30
2023-04-18T08:27:46.965Z,13.60
2023-04-18T08:30:15.764Z,13.90
2023-04-18T08:32:43.817Z,14.30
2023-04-18T08:35:11.919Z,14.50
2023-04-18T08:37:41.646Z,14.80
2023-04-18T08:40:10.105Z,15.00
2023-04-18T08:42:38.451Z,15.00
2023-04-18T08:45:07.623Z,14.80
2023-04-18T08:47:36.343Z,14.90
2023-04-18T08:50:04.989Z,14.90
2023-04-18T08:52:34.175Z,15.00
2023-04-18T08:55:03.868Z,14.90
2023-04-18T08:57:33.332Z,14.90
2023-04-18T09:00:01.983Z,15.20
2023-04-18T09:02:42.057Z,15.20
2023-04-18T09:05:14.440Z,15.20
2023-04-18T09:07:43.016Z,15.20
2023-04-18T09:10:13.875Z,15.30
2023-04-18T09:12:50.114Z,15.20
2023-04-18T09:15:22.537Z,15.60
2023-04-18T09:17:53.440Z,15.80
2023-04-18T09:20:35.871Z,15.50
2023-04-18T09:23:05.417Z,15.50
2023-04-18T09:25:40.051Z,15.30
2023-04-18T09:28:24.350Z,15.20
2023-04-18T09:30:53.179Z,15.30
2023-04-18T09:33:28.220Z,15.50
2023-04-18T09:35:56.411Z,15.70
2023-04-18T09:38:39.693Z,15.90
2023-04-18T09:41:13.096Z,15.90
2023-04-18T09:43:41.481Z,15.80
2023-04-18T09:46:10.066Z,15.70
2023-04-18T09:48:38.081Z,15.90
2023-04-18T09:51:07.957Z,15.80
2023-04-18T09:53:39.440Z,15.50
2023-04-18T09:56:10.680Z,15.70
2023-04-18T09:58:42.870Z,15.70
2023-04-18T10:01:13.125Z,15.40
2023-04-18T10:03:47.571Z,15.50
2023-04-18T10:06:17.892Z,15.50
2023-04-18T10:08:47.421Z,15.60
2023-04-18T10:11:15.813Z,15.40
2023-04-18T10:13:48.807Z,15.20
2023-04-18T10:16:18.149Z,15.10
2023-04-18T10:18:46.302Z,15.00
2023-04-18T10:21:14.511Z,15.00
2023-04-18T10:23:42.598Z,15.40
2023-04-18T10:26:11.822Z,15.40
2023-04-18T10:28:56.601Z,15.50
2023-04-18T10:31:25.838Z,15.80
2023-04-18T10:36:28.574Z,16.10
2023-04-18T10:39:01.176Z,16.00
2023-04-18T10:41:30.434Z,15.90
2023-04-18T10:44:19.397Z,16.20
2023-04-18T10:47:22.937Z,16.60
2023-04-18T10:50:00.950Z,17.70
2023-04-18T10:52:29.828Z,17.70
2023-04-18T10:55:09.120Z,17.60
2023-04-18T10:57:41.439Z,17.70
2023-04-18T11:00:14.386Z,17.70
2023-04-18T11:02:50.581Z,18.00
2023-04-18T11:05:24.237Z,17.80
2023-04-18T11:07:53.118Z,17.90
2023-04-18T11:10:23.742Z,18.00
2023-04-18T11:12:52.170Z,18.70
2023-04-18T11:15:22.866Z,19.00
2023-04-18T11:17:58.952Z,18.30
2023-04-18T11:20:27.434Z,17.70
2023-04-18T11:22:57.258Z,17.70
2023-04-18T11:25:28.012Z,17.50
2023-04-18T11:27:59.062Z,17.50
2023-04-18T11:30:29.806Z,17.20
2023-04-18T11:32:57.948Z,17.20
2023-04-18T11:35:26.044Z,16.90
2023-04-18T11:37:56.150Z,16.60
2023-04-18T11:40:24.445Z,16.30
2023-04-18T11:42:55.288Z,16.40
2023-04-18T11:45:23.338Z,16.50
2023-04-18T11:47:58.044Z,16.40
2023-04-18T11:50:26.763Z,16.60
2023-04-18T11:52:55.616Z,16.60
2023-04-18T11:55:25.393Z,16.70
2023-04-18T11:57:54.773Z,17.00
2023-04-18T12:00:33.533Z,17.10
2023-04-18T12:03:05.249Z,17.00
2023-04-18T12:05:35.087Z,16.80
2023-04-18T12:08:07.299Z,16.90
2023-04-18T12:10:35.904Z,17.10
2023-04-18T12:13:08.022Z,17.00
2023-04-18T12:15:39.743Z,16.70
2023-04-18T12:18:09.438Z,16.50
2023-04-18T12:20:39.266Z,16.50
2023-04-18T12:23:07.945Z,16.60
2023-04-18T12:25:36.432Z,16.70
2023-04-18T12:28:14.328Z,16.80
2023-04-18T12:30:43.222Z,16.70
2023-04-18T12:33:14.740Z,16.70
2023-04-18T12:35:43.627Z,16.60
2023-04-18T12:38:11.813Z,16.50
2023-04-18T12:40:40.707Z,16.60
2023-04-18T12:43:09.010Z,16.60
2023-04-18T12:45:37.029Z,16.40
2023-04-18T12:48:05.667Z,16.30
2023-04-18T12:50:35.918Z,16.10
2023-04-18T12:53:04.895Z,16.30
2023-04-18T12:55:33.026Z,16.30
2023-04-18T12:58:01.523Z,16.30
2023-04-18T13:00:32.984Z,16.40
2023-04-18T13:03:01.509Z,16.30
2023-04-18T13:05:33.522Z,16.10
2023-04-18T13:10:34.495Z,16.10
2023-04-18T13:13:02.467Z,16.20
2023-04-18T13:15:30.561Z,16.20
2023-04-18T13:18:04.234Z,16.10
2023-04-18T13:20:32.532Z,16.20
2023-04-18T13:23:00.708Z,16.30
2023-04-18T13:25:30.153Z,16.30
2023-04-18T13:27:58.487Z,16.30
2023-04-18T13:30:27.023Z,16.40
2023-04-18T13:32:55.204Z,16.50
2023-04-18T13:35:23.393Z,16.70
2023-04-18T13:37:51.610Z,16.70
2023-04-18T13:40:19.540Z,16.90
2023-04-18T13:42:48.864Z,17.10
2023-04-18T13:45:16.921Z,17.20
2023-04-18T13:47:45.099Z,17.00
2023-04-18T13:50:13.138Z,16.80
2023-04-18T13:52:41.122Z,16.50
2023-04-18T13:55:10.651Z,16.30
2023-04-18T13:57:38.691Z,16.40
2023-04-18T14:00:09.929Z,16.40
2023-04-18T14:02:41.374Z,16.40
2023-04-18T14:05:10.670Z,16.70
2023-04-18T14:07:39.337Z,17.00
2023-04-18T14:10:08.434Z,17.10
2023-04-18T14:12:36.969Z,17.10
2023-04-18T14:15:07.835Z,17.10
2023-04-18T14:17:35.919Z,17.20
2023-04-18T14:20:04.763Z,17.00
2023-04-18T14:22:35.059Z,17.00
2023-04-18T14:25:03.260Z,16.80
2023-04-18T14:27:31.289Z,16.80
2023-04-18T14:29:59.937Z,16.90
2023-04-18T14:32:31.058Z,17.10
2023-04-18T14:34:59.842Z,16.80
2023-04-18T14:37:27.951Z,16.70
2023-04-18T14:39:56.056Z,16.50
2023-04-18T14:42:24.096Z,16.40
2023-04-18T14:44:52.132Z,16.50
2023-04-18T14:47:20.131Z,16.50
2023-04-18T14:49:49.520Z,16.50
2023-04-18T14:52:17.529Z,16.50
2023-04-18T14:54:45.646Z,16.40
2023-04-18T14:57:13.864Z,16.40
2023-04-18T14:59:41.854Z,16.30
2023-04-18T15:02:10.070Z,16.30
2023-04-18T15:04:38.282Z,16.30
2023-04-18T15:07:07.906Z,16.30
2023-04-18T15:09:37.583Z,16.20
2023-04-18T15:12:06.796Z,16.20
2023-04-18T15:14:35.665Z,16.30
2023-04-18T15:17:04.522Z,16.30
2023-04-18T15:19:32.832Z,16.30
2023-04-18T15:22:00.944Z,16.20
2023-04-18T15:24:30.590Z,16.10
2023-04-18T15:26:58.841Z,16.00
2023-04-18T15:29:26.954Z,15.90
2023-04-18T15:31:54.974Z,16.00
2023-04-18T15:34:23.202Z,16.00
2023-04-18T15:36:51.374Z,15.90
2023-04-18T15:39:23.213Z,15.80
2023-04-18T15:41:55.086Z,15.90
2023-04-18T15:44:23.548Z,15.80
2023-04-18T15:46:51.815Z,15.90
2023-04-18T15:49:19.826Z,15.90
2023-04-18T15:51:47.783Z,15.90
2023-04-18T15:54:16.020Z,15.80
2023-04-18T15:56:44.791Z,15.80
2023-04-18T15:59:14.677Z,15.70
2023-04-18T16:01:45.674Z,15.70
2023-04-18T16:04:14.662Z,15.70
2023-04-18T16:06:43.215Z,15.70
2023-04-18T16:09:11.153Z,15.70
2023-04-18T16:11:39.548Z,15.70
2023-04-18T16:14:10.276Z,15.40
2023-04-18T16:16:39.722Z,15.60
2023-04-18T16:19:07.691Z,15.70
2023-04-18T16:21:35.800Z,15.60
2023-04-18T16:24:03.742Z,15.50
2023-04-18T16:26:31.780Z,15.40
2023-04-18T16:28:59.758Z,15.50
2023-04-18T16:31:27.960Z,15.40
2023-04-18T16:33:57.419Z,15.40
2023-04-18T16:36:25.845Z,15.30
2023-04-18T16:38:57.940Z,15.20
2023-04-18T16:41:26.910Z,15.10
2023-04-18T16:43:54.943Z,15.00
2023-04-18T16:46:23.055Z,15.00
2023-04-18T16:48:52.397Z,15.00
2023-04-18T16:51:21.974Z,15.00
2023-04-18T16:53:50.079Z,15.00
2023-04-18T16:56:18.006Z,15.00
2023-04-18T16:58:45.952Z,14.90
2023-04-18T17:01:14.014Z,14.80
2023-04-18T17:03:42.396Z,14.70
2023-04-18T17:06:10.420Z,14.70
2023-04-18T17:08:39.770Z,14.60
2023-04-18T17:11:07.728Z,14.50
2023-04-18T17:13:36.251Z,14.40
2023-04-18T17:16:04.545Z,14.40
2023-04-18T17:18:33.106Z,14.30
2023-04-18T17:21:01.012Z,14.20
2023-04-18T17:23:30.333Z,14.20
2023-04-18T17:26:00.947Z,14.00
2023-04-18T17:28:28.949Z,14.00
2023-04-18T17:30:57.480Z,13.90
2023-04-18T17:33:25.516Z,13.80
2023-04-18T17:35:53.591Z,14.10
2023-04-18T17:38:21.604Z,14.00
2023-04-18T17:40:49.815Z,14.10
2023-04-18T17:43:19.240Z,14.00
2023-04-18T17:45:52.602Z,14.10
2023-04-18T17:48:21.168Z,14.10
2023-04-18T17:50:49.215Z,14.10
2023-04-18T17:53:18.836Z,14.00
2023-04-18T17:55:50.378Z,14.00
2023-04-18T17:58:19.877Z,14.00
2023-04-18T18:00:48.237Z,14.00
2023-04-18T18:03:17.104Z,14.00
2023-04-18T18:05:47.035Z,14.00
2023-04-18T18:08:15.276Z,14.00
2023-04-18T18:10:44.335Z,14.00
2023-04-18T18:13:12.411Z,14.00
2023-04-18T18:15:41.904Z,13.90
2023-04-18T18:18:10.163Z,13.90
2023-04-18T18:20:38.238Z,13.80
2023-04-18T18:23:06.772Z,13.90
2023-04-18T18:25:36.972Z,13.90
2023-04-18T18:28:05.308Z,13.80
2023-04-18T18:30:33.555Z,13.80
2023-04-18T18:33:03.776Z,13.70
2023-04-18T18:35:31.857Z,13.70
2023-04-18T18:37:59.889Z,13.60
2023-04-18T18:40:27.976Z,13.50
2023-04-18T18:42:56.757Z,13.40
2023-04-18T18:45:24.891Z,13.30
2023-04-18T18:47:53.005Z,13.30
2023-04-18T18:50:22.612Z,13.30
2023-04-18T18:52:50.645Z,13.40
2023-04-18T18:55:18.624Z,13.40
2023-04-18T18:57:46.566Z,13.30
2023-04-18T19:00:14.977Z,13.40
2023-04-18T19:02:43.119Z,13.40
2023-04-18T19:05:12.765Z,13.40
2023-04-18T19:07:42.837Z,13.30
2023-04-18T19:10:11.716Z,13.40
2023-04-18T19:12:41.831Z,13.30
2023-04-18T19:15:11.091Z,13.30
2023-04-18T19:17:39.156Z,13.40
2023-04-18T19:20:09.043Z,13.40
2023-04-18T19:22:37.352Z,13.30
2023-04-18T19:25:07.824Z,13.40
2023-04-18T19:27:35.844Z,13.30
2023-04-18T19:30:03.942Z,13.30
2023-04-18T19:32:32.631Z,13.20
2023-04-18T19:35:00.793Z,13.30
2023-04-18T19:37:28.873Z,13.20
2023-04-18T19:39:59.403Z,13.10
2023-04-18T19:42:29.404Z,13.20
2023-04-18T19:44:57.722Z,13.00
2023-04-18T19:47:27.488Z,12.90
2023-04-18T19:49:58.917Z,12.90
2023-04-18T19:52:27.405Z,13.00
2023-04-18T19:54:56.666Z,12.90
2023-04-18T19:57:26.335Z,12.90
2023-04-18T19:59:56.610Z,12.90
2023-04-18T20:02:24.860Z,12.80
2023-04-18T20:04:55.055Z,12.80
2023-04-18T20:07:25.527Z,12.80
2023-04-18T20:09:54.318Z,12.70
2023-04-18T20:12:22.359Z,12.70
2023-04-18T20:14:50.456Z,12.60
2023-04-18T20:17:19.811Z,12.60
2023-04-18T20:19:49.616Z,12.60
2023-04-18T20:22:17.851Z,12.50
2023-04-18T20:24:46.145Z,12.50
2023-04-18T20:27:14.212Z,12.30
2023-04-18T20:29:42.298Z,12.40
2023-04-18T20:32:12.244Z,12.30
2023-04-18T20:34:41.679Z,12.40
2023-04-18T20:37:10.036Z,12.40
2023-04-18T20:39:39.876Z,12.30
2023-04-18T20:42:07.905Z,12.20
2023-04-18T20:44:36.002Z,12.30
2023-04-18T20:47:03.952Z,12.20
2023-04-18T20:49:32.024Z,12.20
2023-04-18T20:52:01.564Z,12.10
2023-04-18T20:54:29.568Z,12.10
2023-04-18T20:56:57.569Z,12.00
2023-04-18T20:59:25.774Z,12.00
2023-04-18T21:01:53.854Z,12.00
2023-04-18T21:04:22.349Z,12.00
2023-04-18T21:06:50.625Z,12.00
2023-04-18T21:09:19.993Z,11.90
2023-04-18T21:11:48.002Z,11.80
2023-04-18T21:14:17.220Z,11.80
2023-04-18T21:16:45.714Z,11.70
2023-04-18T21:19:15.573Z,11.80
2023-04-18T21:21:43.604Z,11.70
2023-04-18T21:24:11.679Z,11.70
2023-04-18T21:26:41.093Z,11.70
2023-04-18T21:29:11.180Z,11.60
2023-04-18T21:31:39.439Z,11.60
2023-04-18T21:34:07.476Z,11.60
2023-04-18T21:36:35.977Z,11.50
2023-04-18T21:39:04.647Z,11.60
2023-04-18T21:41:32.811Z,11.50
2023-04-18T21:44:02.242Z,11.50
2023-04-18T21:46:30.332Z,11.50
2023-04-18T21:48:58.350Z,11.50
2023-04-18T21:51:27.263Z,11.50
2023-04-18T21:53:55.410Z,11.40
2023-04-18T21:56:23.394Z,11.50
2023-04-18T21:58:51.433Z,11.60
2023-04-18T22:01:22.084Z,11.40
2023-04-18T22:03:50.253Z,11.40
2023-04-18T22:06:18.358Z,11.30
2023-04-18T22:08:46.535Z,11.30
2023-04-18T22:11:16.034Z,11.30
2023-04-18T22:13:44.737Z,11.20
2023-04-18T22:16:13.700Z,11.20
2023-04-18T22:18:43.165Z,11.10
2023-04-18T22:21:11.322Z,11.00
2023-04-18T22:23:39.421Z,11.00
2023-04-18T22:26:07.446Z,11.00
2023-04-18T22:28:35.581Z,11.00
2023-04-18T22:31:03.586Z,11.00
2023-04-18T22:33:31.571Z,11.00
2023-04-18T22:36:01.548Z,11.10
2023-04-18T22:38:29.474Z,10.90
2023-04-18T22:40:57.608Z,10.90
2023-04-18T22:43:26.957Z,10.80
2023-04-18T22:45:55.068Z,10.90
2023-04-18T22:48:23.648Z,10.90
2023-04-18T22:50:51.716Z,10.80
2023-04-18T22:53:21.373Z,10.70
2023-04-18T22:55:49.414Z,10.70
2023-04-18T22:58:17.415Z,10.70
2023-04-18T23:00:45.585Z,10.60
2023-04-18T23:03:15.631Z,10.60
2023-04-18T23:05:43.696Z,10.60
2023-04-18T23:08:12.142Z,10.60
2023-04-18T23:10:41.587Z,10.60
2023-04-18T23:13:09.583Z,10.40
2023-04-18T23:15:37.560Z,10.50
2023-04-18T23:18:05.729Z,10.50
2023-04-18T23:20:33.792Z,10.50
2023-04-18T23:23:01.934Z,10.40
2023-04-18T23:25:29.941Z,10.40
2023-04-18T23:27:59.482Z,10.30
2023-04-18T23:30:27.499Z,10.30
2023-04-18T23:32:55.821Z,10.30
2023-04-18T23:35:24.468Z,10.20
2023-04-18T23:37:52.472Z,10.20
2023-04-18T23:40:21.021Z,10.20
2023-04-18T23:42:49.037Z,10.00
2023-04-18T23:45:18.608Z,9.90
2023-04-18T23:47:46.623Z,9.90
2023-04-18T23:50:14.619Z,9.70
2023-04-18T23:52:42.643Z,9.60
2023-04-18T23:55:11.233Z,9.50
2023-04-18T23:57:39.378Z,9.40
